Time;durP1;ratioP1;P1;durP2;ratioP2;P2;SDS_P1;SDS_P2;PMS_P1;PMS_P2;Temp;Humidity;BMP_temperature;BMP_pressure;BME280_temperature;BME280_humidity;BME280_pressure;Samples;Min_cycle;Max_cycle;Signal;HPM_P1;HPM_P2
2023/09/06 00:01:42;;;;;;;5.50;3.80;;;;;;;10.44;100.00;98139.09;110179;1245;59672;-66
2023/09/06 00:04:11;;;;;;;5.20;3.60;;;;;;;10.39;100.00;98141.98;110184;1241;71304;-66
2023/09/06 00:06:42;;;;;;;4.70;3.40;;;;;;;10.36;100.00;98141.30;110187;1244;69111;-66
2023/09/06 00:09:14;;;;;;;5.40;3.60;;;;;;;10.34;100.00;98142.29;110150;1244;68629;-66
2023/09/06 00:11:46;;;;;;;5.50;3.20;;;;;;;10.33;100.00;98136.98;110182;1242;59965;-66
2023/09/06 00:14:20;;;;;;;4.00;3.00;;;;;;;10.31;100.00;98135.85;110186;1244;59691;-66
2023/09/06 00:16:50;;;;;;;4.70;3.30;;;;;;;10.29;100.00;98134.40;110198;1241;71517;-66
2023/09/06 00:19:20;;;;;;;5.40;3.30;;;;;;;10.25;100.00;98136.73;110134;1243;69352;-66
2023/09/06 00:21:53;;;;;;;4.80;3.60;;;;;;;10.20;100.00;98140.15;110105;1241;69693;-66
2023/09/06 00:24:23;;;;;;;4.50;2.70;;;;;;;10.13;100.00;98139.52;110149;1244;59761;-66
2023/09/06 00:26:57;;;;;;;4.50;3.10;;;;;;;10.06;100.00;98138.91;110220;1243;59737;-66
2023/09/06 00:29:27;;;;;;;5.50;3.10;;;;;;;10.00;100.00;98138.56;110200;1244;70430;-66
2023/09/06 00:31:58;;;;;;;3.90;2.90;;;;;;;9.93;100.00;98139.83;110173;1243;69358;-66
2023/09/06 00:34:31;;;;;;;4.90;3.20;;;;;;;9.89;100.00;98143.69;110127;1241;69112;-66
2023/09/06 00:37:02;;;;;;;3.40;2.60;;;;;;;9.85;100.00;98143.27;110158;1241;59809;-66
2023/09/06 00:39:35;;;;;;;5.30;3.00;;;;;;;9.80;100.00;98141.80;110153;1247;59719;-66
2023/09/06 00:42:05;;;;;;;4.20;2.90;;;;;;;9.77;100.00;98144.60;110157;1241;72027;-66
2023/09/06 00:44:36;;;;;;;4.50;3.10;;;;;;;9.73;100.00;98140.80;110130;1241;69373;-66
2023/09/06 00:47:08;;;;;;;4.60;3.10;;;;;;;9.71;100.00;98144.94;110096;1244;68218;-66
2023/09/06 00:49:39;;;;;;;6.30;4.80;;;;;;;9.67;100.00;98141.13;110155;1241;59679;-66
2023/09/06 00:52:10;;;;;;;6.00;4.00;;;;;;;9.67;100.00;98137.13;110123;1243;59694;-67
2023/09/06 00:54:42;;;;;;;6.80;4.30;;;;;;;9.67;100.00;98138.71;110194;1241;70428;-67
2023/09/06 00:57:15;;;;;;;6.20;4.10;;;;;;;9.65;100.00;98134.14;110157;1241;69387;-66
2023/09/06 00:59:50;;;;;;;5.50;3.50;;;;;;;9.65;100.00;98136.59;110116;1241;68385;-66
2023/09/06 01:02:21;;;;;;;5.20;3.60;;;;;;;9.61;100.00;98138.01;110162;1244;59763;-66
2023/09/06 01:04:54;;;;;;;6.60;4.10;;;;;;;9.59;100.00;98135.86;110163;1244;60054;-66
2023/09/06 01:07:28;;;;;;;4.10;3.30;;;;;;;9.57;100.00;98137.89;110103;1241;70567;-66
2023/09/06 01:09:59;;;;;;;4.90;3.20;;;;;;;9.54;100.00;98135.30;110137;1241;68653;-66
2023/09/06 01:12:34;;;;;;;5.40;3.20;;;;;;;9.52;100.00;98134.56;110138;1241;69375;-66
2023/09/06 01:15:05;;;;;;;5.00;3.30;;;;;;;9.50;100.00;98132.24;110138;1244;59744;-66
2023/09/06 01:17:39;;;;;;;4.50;3.30;;;;;;;9.48;100.00;98131.13;110173;1241;60057;-65
2023/09/06 01:20:29;;;;;;;5.90;3.70;;;;;;;9.47;100.00;98127.52;110067;1244;69996;-66
2023/09/06 01:23:36;;;;;;;5.10;3.60;;;;;;;9.45;100.00;98125.73;110206;1244;69397;-65
2023/09/06 01:26:07;;;;;;;6.70;3.80;;;;;;;9.44;100.00;98126.80;109993;1244;69308;-66
2023/09/06 01:28:38;;;;;;;6.00;3.70;;;;;;;9.42;100.00;98124.31;110139;1244;60080;-66
2023/09/06 01:31:09;;;;;;;3.90;3.00;;;;;;;9.41;100.00;98125.61;110159;1241;59694;-66
2023/09/06 01:33:40;;;;;;;5.10;3.30;;;;;;;9.39;100.00;98125.02;110183;1241;70682;-66
2023/09/06 01:36:11;;;;;;;4.00;3.10;;;;;;;9.36;100.00;98123.94;110154;1244;68480;-66
2023/09/06 01:38:42;;;;;;;5.00;3.80;;;;;;;9.33;100.00;98123.30;110181;1244;68938;-66
2023/09/06 01:41:12;;;;;;;6.00;3.90;;;;;;;9.27;100.00;98121.35;110135;1244;59695;-66
2023/09/06 01:43:44;;;;;;;4.60;3.60;;;;;;;9.21;100.00;98123.58;110215;1241;59644;-66
2023/09/06 01:46:15;;;;;;;5.80;3.70;;;;;;;9.16;100.00;98117.78;110081;1241;72060;-66
2023/09/06 01:48:46;;;;;;;5.30;3.10;;;;;;;9.11;100.00;98117.86;110164;1243;68388;-66
2023/09/06 01:51:17;;;;;;;4.50;3.00;;;;;;;9.06;100.00;98117.98;110108;1243;69129;-66
2023/09/06 01:53:47;;;;;;;7.00;4.60;;;;;;;9.03;100.00;98113.97;110096;1244;59768;-66
2023/09/06 01:56:17;;;;;;;7.10;4.30;;;;;;;9.01;100.00;98114.27;110154;1248;59691;-66
2023/09/06 01:58:48;;;;;;;6.90;4.20;;;;;;;8.99;100.00;98114.92;110150;1242;71240;-66
2023/09/06 02:01:19;;;;;;;;;;;;;;;8.96;100.00;98116.45;110139;1241;69533;-66
2023/09/06 02:03:50;;;;;;;4.90;3.60;;;;;;;8.94;100.00;98120.23;110163;1243;69419;-66
2023/09/06 02:06:21;;;;;;;5.30;3.70;;;;;;;8.92;100.00;98120.48;110068;1244;60127;-66
2023/09/06 02:08:52;;;;;;;4.00;2.90;;;;;;;8.91;100.00;98121.27;110179;1243;59630;-66
2023/09/06 02:11:22;;;;;;;4.20;3.00;;;;;;;8.87;100.00;98119.54;110139;1241;71269;-66
2023/09/06 02:13:52;;;;;;;4.30;3.20;;;;;;;8.84;100.00;98118.33;110163;1242;68425;-66
2023/09/06 02:16:24;;;;;;;4.70;2.90;;;;;;;8.81;100.00;98123.70;110133;1241;68334;-66
2023/09/06 02:18:55;;;;;;;5.00;3.50;;;;;;;8.77;100.00;98121.84;110176;1243;59725;-66
2023/09/06 02:21:25;;;;;;;6.80;4.40;;;;;;;8.76;100.00;98121.58;110207;1244;59691;-66
2023/09/06 02:23:58;;;;;;;4.80;3.40;;;;;;;8.77;100.00;98120.98;110167;1245;71714;-66
2023/09/06 02:26:29;;;;;;;;;;;;;;;8.79;100.00;98121.42;110235;1243;69497;-66
2023/09/06 02:29:00;;;;;;;5.20;3.90;;;;;;;8.78;100.00;98121.63;110085;1241;68641;-66
2023/09/06 02:31:30;;;;;;;6.20;4.70;;;;;;;8.78;100.00;98118.65;110188;1241;59666;-65
2023/09/06 02:33:59;;;;;;;;;;;;;;;8.79;100.00;98119.65;110196;1243;59640;-66
2023/09/06 02:36:29;;;;;;;8.50;6.30;;;;;;;8.79;100.00;98116.54;110138;1243;72317;-66
2023/09/06 02:38:59;;;;;;;7.70;5.30;;;;;;;8.79;100.00;98117.08;110150;1243;68566;-66
2023/09/06 02:41:29;;;;;;;7.10;5.50;;;;;;;8.77;100.00;98119.41;110148;1241;68817;-66
2023/09/06 02:44:01;;;;;;;6.70;5.20;;;;;;;8.76;100.00;98117.02;110089;1244;59699;-66
2023/09/06 02:46:33;;;;;;;8.60;4.70;;;;;;;8.76;100.00;98121.23;110149;1241;59692;-66
2023/09/06 02:49:11;;;;;;;6.10;4.60;;;;;;;8.73;100.00;98118.09;110162;1245;71825;-66
2023/09/06 02:51:47;;;;;;;6.90;4.40;;;;;;;8.71;100.00;98122.50;110141;1241;69371;-66
2023/09/06 02:54:17;;;;;;;6.20;4.30;;;;;;;8.71;100.00;98124.63;110146;1241;69944;-66
2023/09/06 02:56:46;;;;;;;5.50;3.90;;;;;;;8.67;100.00;98125.82;110128;1244;59740;-65
2023/09/06 02:59:16;;;;;;;4.90;3.70;;;;;;;8.66;100.00;98127.29;110130;1241;59741;-65
2023/09/06 03:01:45;;;;;;;6.30;4.30;;;;;;;8.64;100.00;98127.77;110179;1244;72324;-65
2023/09/06 03:04:15;;;;;;;5.50;4.10;;;;;;;8.62;100.00;98132.92;110118;1241;68802;-65
2023/09/06 03:06:45;;;;;;;4.20;3.20;;;;;;;8.61;100.00;98128.60;110136;1241;69484;-66
2023/09/06 03:09:15;;;;;;;5.80;3.80;;;;;;;8.59;100.00;98127.29;110111;1243;59744;-66
2023/09/06 03:11:47;;;;;;;5.10;3.80;;;;;;;8.57;100.00;98129.72;110128;1241;59741;-65
2023/09/06 03:14:21;;;;;;;4.40;3.10;;;;;;;8.54;100.00;98135.91;110156;1243;71440;-65
2023/09/06 03:16:53;;;;;;;5.60;3.60;;;;;;;8.53;100.00;98137.19;110108;1241;68601;-65
2023/09/06 03:19:23;;;;;;;4.30;3.20;;;;;;;8.54;100.00;98137.00;110142;1243;69310;-66
2023/09/06 03:21:55;;;;;;;4.40;3.70;;;;;;;8.54;100.00;98135.39;110156;1244;59712;-65
2023/09/06 03:24:25;;;;;;;5.30;3.50;;;;;;;8.54;100.00;98138.34;110172;1243;59753;-68
2023/09/06 03:26:58;;;;;;;5.10;3.80;;;;;;;8.54;100.00;98141.48;110179;1241;70736;-66
2023/09/06 03:29:36;;;;;;;4.60;3.50;;;;;;;8.52;100.00;98137.27;110088;1244;69369;-65
2023/09/06 03:32:08;;;;;;;5.40;4.20;;;;;;;8.49;100.00;98138.79;110080;1251;69105;-65
2023/09/06 03:34:40;;;;;;;5.80;4.10;;;;;;;8.47;100.00;98142.40;110151;1241;59700;-66
2023/09/06 03:37:11;;;;;;;6.10;4.30;;;;;;;8.45;100.00;98146.52;110168;1241;59673;-65
2023/09/06 03:39:43;;;;;;;5.40;3.80;;;;;;;8.43;100.00;98147.28;110109;1244;71410;-64
2023/09/06 03:42:15;;;;;;;5.10;3.70;;;;;;;8.41;100.00;98147.72;110107;1241;68523;-65
2023/09/06 03:44:46;;;;;;;5.30;3.90;;;;;;;8.41;100.00;98148.42;109992;1241;68447;-65
2023/09/06 03:47:16;;;;;;;5.80;4.10;;;;;;;8.41;100.00;98147.89;110079;1241;59794;-65
2023/09/06 03:49:47;;;;;;;5.30;3.70;;;;;;;8.41;100.00;98151.39;110142;1244;59656;-65
2023/09/06 03:52:18;;;;;;;5.00;3.90;;;;;;;8.40;100.00;98151.41;110178;1244;70652;-65
2023/09/06 03:54:50;;;;;;;;;;;;;;;8.39;100.00;98151.80;110117;1241;69104;-65
2023/09/06 03:57:20;;;;;;;4.50;3.10;;;;;;;8.39;100.00;98155.64;110139;1241;69186;-66
2023/09/06 03:59:50;;;;;;;4.60;3.40;;;;;;;8.38;100.00;98156.41;110116;1245;59776;-65
2023/09/06 04:02:19;;;;;;;4.00;2.90;;;;;;;8.37;100.00;98155.21;110117;1242;59743;-65
2023/09/06 04:04:49;;;;;;;5.50;3.30;;;;;;;8.39;100.00;98157.73;110181;1244;72341;-65
2023/09/06 04:07:19;;;;;;;4.00;3.20;;;;;;;8.40;100.00;98155.25;110140;1242;69820;-66
2023/09/06 04:09:56;;;;;;;5.50;3.50;;;;;;;8.43;100.00;98153.89;110104;1241;69130;-65
2023/09/06 04:12:26;;;;;;;5.10;3.90;;;;;;;8.47;100.00;98151.41;110138;1241;59701;-65
2023/09/06 04:14:57;;;;;;;5.20;3.60;;;;;;;8.51;100.00;98155.04;110214;1245;60130;-65
2023/09/06 04:17:27;;;;;;;7.20;4.40;;;;;;;8.56;100.00;98157.52;110149;1241;70473;-66
2023/09/06 04:19:57;;;;;;;6.50;5.00;;;;;;;8.67;100.00;98158.69;110105;1244;70660;-66
2023/09/06 04:22:28;;;;;;;5.70;4.30;;;;;;;8.85;100.00;98157.20;110099;1244;69210;-66
2023/09/06 04:24:58;;;;;;;4.20;3.50;;;;;;;9.08;100.00;98160.79;110082;1244;59692;-66
2023/09/06 04:27:28;;;;;;;4.60;3.40;;;;;;;9.35;100.00;98160.02;110176;1241;60134;-66
2023/09/06 04:29:58;;;;;;;7.20;4.10;;;;;;;9.61;100.00;98162.54;110145;1241;71978;-66
2023/09/06 04:32:27;;;;;;;5.80;4.70;;;;;;;9.82;100.00;98161.00;110177;1244;68775;-66
2023/09/06 04:34:58;;;;;;;5.40;4.40;;;;;;;10.09;100.00;98163.63;110131;1244;69589;-66
2023/09/06 04:37:28;;;;;;;6.80;4.80;;;;;;;10.33;100.00;98157.16;110143;1241;59734;-66
2023/09/06 04:39:59;;;;;;;6.10;4.70;;;;;;;10.56;100.00;98161.02;110123;1244;59677;-66
2023/09/06 04:42:32;;;;;;;5.00;3.90;;;;;;;10.76;100.00;98159.95;110195;1241;72029;-65
2023/09/06 04:45:03;;;;;;;4.70;3.80;;;;;;;10.93;100.00;98162.89;110120;1241;69646;-65
2023/09/06 04:47:33;;;;;;;4.90;4.20;;;;;;;11.08;100.00;98167.92;110138;1244;69385;-65
2023/09/06 04:50:07;;;;;;;5.90;5.00;;;;;;;11.33;100.00;98165.46;109963;1245;59749;-65
2023/09/06 04:52:47;;;;;;;6.10;5.10;;;;;;;11.64;100.00;98166.06;109705;1244;59809;-65
2023/09/06 04:55:19;;;;;;;4.80;4.00;;;;;;;11.94;100.00;98168.34;110108;1242;71935;-65
2023/09/06 04:57:53;;;;;;;6.40;5.00;;;;;;;12.19;100.00;98170.11;110110;1241;69192;-65
2023/09/06 05:00:30;;;;;;;5.70;5.10;;;;;;;12.45;100.00;98173.64;110127;1244;69302;-65
2023/09/06 05:03:03;;;;;;;7.00;4.80;;;;;;;12.58;100.00;98172.92;110152;1245;59773;-65
2023/09/06 05:05:32;;;;;;;5.60;4.60;;;;;;;12.77;100.00;98176.98;110108;1241;59712;-66
2023/09/06 05:08:03;;;;;;;5.60;4.40;;;;;;;12.98;100.00;98174.16;110164;1245;71424;-66
2023/09/06 05:10:35;;;;;;;4.70;3.80;;;;;;;13.21;100.00;98172.68;110117;1244;69784;-66
2023/09/06 05:13:07;;;;;;;5.90;4.30;;;;;;;13.46;100.00;98176.35;110085;1241;69718;-66
2023/09/06 05:15:40;;;;;;;5.50;3.60;;;;;;;13.70;100.00;98176.33;110118;1245;59743;-66
2023/09/06 05:18:11;;;;;;;4.40;3.70;;;;;;;13.86;94.85;98177.40;110166;1244;59685;-67
2023/09/06 05:20:41;;;;;;;4.50;3.70;;;;;;;14.09;96.70;98183.09;110134;1244;70669;-66
2023/09/06 05:23:17;;;;;;;4.50;3.50;;;;;;;14.25;92.23;98186.25;110161;1243;69861;-66
2023/09/06 05:25:46;;;;;;;4.90;3.50;;;;;;;14.52;96.42;98187.91;110111;1241;69990;-67
2023/09/06 05:28:23;;;;;;;5.70;4.40;;;;;;;14.72;88.82;98187.22;110140;1244;59754;-67
2023/09/06 05:30:57;;;;;;;5.10;4.10;;;;;;;14.98;90.21;98186.83;110173;1244;59628;-66
2023/09/06 05:33:27;;;;;;;6.80;4.50;;;;;;;15.20;89.72;98187.52;110132;1244;71408;-66
2023/09/06 05:35:56;;;;;;;5.20;4.60;;;;;;;15.47;98.36;98186.23;110122;1244;69562;-66
2023/09/06 05:38:26;;;;;;;5.50;4.00;;;;;;;15.82;88.66;98187.15;110138;1241;69201;-67
2023/09/06 05:40:57;;;;;;;5.40;3.80;;;;;;;16.25;90.38;98191.84;110096;1244;59727;-66
2023/09/06 05:43:33;;;;;;;6.10;4.20;;;;;;;16.61;86.88;98192.98;110185;1244;59691;-65
2023/09/06 05:46:04;;;;;;;5.90;4.00;;;;;;;16.92;81.40;98193.56;110148;1245;71935;-65
2023/09/06 05:48:45;;;;;;;4.60;4.00;;;;;;;17.23;87.10;98196.46;110168;1241;68468;-65
2023/09/06 05:51:15;;;;;;;5.70;4.40;;;;;;;17.51;84.63;98199.09;110112;1243;69369;-66
2023/09/06 05:53:44;;;;;;;;;;;;;;;17.84;80.22;98198.54;110127;1243;59718;-67
2023/09/06 05:56:13;;;;;;;4.40;3.80;;;;;;;18.03;75.71;98197.64;110165;1244;59676;-67
2023/09/06 05:58:43;;;;;;;4.90;4.20;;;;;;;18.25;81.90;98204.83;110111;1241;70387;-68
2023/09/06 06:01:12;;;;;;;5.40;4.00;;;;;;;18.43;79.03;98205.06;110094;1245;69222;-67
2023/09/06 06:03:43;;;;;;;;;;;;;;;18.72;79.88;98204.21;110138;1241;69907;-67
2023/09/06 06:06:16;;;;;;;6.90;5.70;;;;;;;19.03;75.59;98206.59;110139;1243;59762;-67
2023/09/06 06:08:45;;;;;;;8.30;7.00;;;;;;;19.24;75.95;98202.48;110143;1241;59692;-66
2023/09/06 06:11:15;;;;;;;7.70;6.50;;;;;;;19.29;74.53;98200.35;110118;1241;71994;-68
2023/09/06 06:13:44;;;;;;;6.90;5.70;;;;;;;19.32;71.84;98194.25;110074;1244;69841;-66
2023/09/06 06:16:33;;;;;;;6.60;5.80;;;;;;;19.40;69.77;98197.16;110114;1244;69951;-68
2023/09/06 06:19:03;;;;;;;6.70;5.30;;;;;;;19.58;69.32;98199.69;110103;1243;59667;-67
2023/09/06 06:21:32;;;;;;;5.60;4.60;;;;;;;19.88;68.84;98202.42;110102;1244;59680;-67
2023/09/06 06:24:01;;;;;;;7.30;5.20;;;;;;;20.11;67.03;98203.55;110147;1243;72145;-67
2023/09/06 06:26:30;;;;;;;5.70;4.60;;;;;;;19.51;64.91;98208.35;110147;1241;69312;-68
2023/09/06 06:29:04;;;;;;;5.20;4.40;;;;;;;19.91;67.98;98211.16;110119;1241;69559;-66
2023/09/06 06:31:34;;;;;;;4.30;3.90;;;;;;;20.38;67.00;98208.96;110117;1244;59793;-65
2023/09/06 06:34:04;;;;;;;4.90;4.30;;;;;;;20.69;64.39;98206.73;110108;1244;59683;-66
2023/09/06 06:36:32;;;;;;;;;;;;;;;20.88;62.51;98207.16;110139;1241;71888;-65
2023/09/06 06:39:01;;;;;;;8.10;5.30;;;;;;;20.65;60.29;98208.92;110112;1244;70322;-65
2023/09/06 06:41:31;;;;;;;7.50;4.20;;;;;;;20.43;59.70;98208.45;110092;1241;69301;-65
2023/09/06 06:44:00;;;;;;;6.00;4.90;;;;;;;20.49;61.55;98209.10;110136;1243;60114;-66
2023/09/06 06:46:32;;;;;;;6.50;4.20;;;;;;;20.39;60.06;98204.66;110068;1244;59698;-66
2023/09/06 06:49:04;;;;;;;5.10;4.20;;;;;;;20.31;60.69;98202.77;110165;1243;71259;-66
2023/09/06 06:51:36;;;;;;;5.00;4.10;;;;;;;20.64;60.93;98204.56;110115;1244;69153;-67
2023/09/06 06:54:08;;;;;;;5.10;3.70;;;;;;;21.21;59.95;98206.87;110179;1241;68995;-66
2023/09/06 06:56:37;;;;;;;5.80;4.30;;;;;;;21.72;60.03;98202.46;110130;1243;59663;-65
2023/09/06 06:59:08;;;;;;;4.10;3.40;;;;;;;21.86;56.51;98202.12;110186;1241;59752;-65
2023/09/06 07:01:38;;;;;;;4.70;3.70;;;;;;;21.98;56.26;98204.05;110176;1244;71905;-65
2023/09/06 07:04:07;;;;;;;4.80;3.60;;;;;;;22.36;54.73;98209.76;110149;1245;69475;-66
2023/09/06 07:06:36;;;;;;;4.70;3.70;;;;;;;22.28;53.79;98203.67;110124;1246;69901;-65
2023/09/06 07:09:06;;;;;;;5.10;3.50;;;;;;;21.93;54.42;98199.14;110179;1243;59751;-66
2023/09/06 07:11:36;;;;;;;;;;;;;;;22.30;54.11;98202.60;110174;1241;59693;-66
2023/09/06 07:14:04;;;;;;;;;;;;;;;22.69;53.93;98202.64;110146;1244;72065;-65
2023/09/06 07:16:33;;;;;;;5.40;3.70;;;;;;;22.87;53.09;98201.38;110142;1241;69915;-64
2023/09/06 07:19:04;;;;;;;5.70;3.60;;;;;;;22.92;52.33;98200.58;110105;1241;70055;-64
2023/09/06 07:21:33;;;;;;;5.20;3.60;;;;;;;22.61;53.43;98198.38;110153;1243;59666;-65
2023/09/06 07:24:03;;;;;;;;;;;;;;;23.34;53.21;98198.04;110176;1243;59660;-65
2023/09/06 07:26:32;;;;;;;4.10;2.90;;;;;;;23.82;53.40;98194.31;110087;1241;72023;-65
2023/09/06 07:29:01;;;;;;;4.10;2.90;;;;;;;24.25;52.24;98193.58;110123;1244;69937;-64
2023/09/06 07:31:32;;;;;;;5.00;3.40;;;;;;;24.47;49.02;98191.29;110124;1243;69288;-65
2023/09/06 07:34:01;;;;;;;4.90;3.50;;;;;;;24.10;48.46;98189.02;110156;1241;59720;-65
2023/09/06 07:36:31;;;;;;;3.60;3.10;;;;;;;24.14;48.41;98188.48;110184;1241;59769;-64
2023/09/06 07:39:00;;;;;;;5.60;3.80;;;;;;;24.30;47.69;98183.02;110125;1244;72003;-66
2023/09/06 07:41:28;;;;;;;5.40;3.20;;;;;;;24.36;46.82;98180.98;110094;1241;69106;-64
2023/09/06 07:43:58;;;;;;;3.60;2.70;;;;;;;23.28;43.68;98181.41;110125;1244;69142;-65
2023/09/06 07:46:29;;;;;;;3.40;2.60;;;;;;;23.35;45.13;98176.37;110116;1241;59637;-66
2023/09/06 07:48:58;;;;;;;4.10;3.00;;;;;;;23.73;45.91;98180.74;110131;1244;59697;-64
2023/09/06 07:51:28;;;;;;;4.30;3.00;;;;;;;23.75;46.22;98179.66;110119;1243;70656;-64
2023/09/06 07:53:57;;;;;;;4.60;3.40;;;;;;;23.71;44.97;98182.83;110137;1243;69136;-65
2023/09/06 07:56:26;;;;;;;4.50;3.50;;;;;;;24.01;45.30;98179.46;110155;1245;68695;-65
2023/09/06 07:58:55;;;;;;;3.10;2.50;;;;;;;24.34;43.21;98176.34;110095;1243;59702;-67
2023/09/06 08:01:25;;;;;;;4.10;3.20;;;;;;;24.25;43.53;98178.98;110151;1244;59676;-65
2023/09/06 08:03:55;;;;;;;4.60;2.90;;;;;;;24.76;43.11;98181.74;110162;1244;71395;-66
2023/09/06 08:06:25;;;;;;;5.10;3.60;;;;;;;25.43;42.23;98182.97;110168;1241;69811;-65
2023/09/06 08:08:54;;;;;;;4.50;3.00;;;;;;;25.63;40.68;98185.34;110112;1245;69256;-65
2023/09/06 08:11:23;;;;;;;3.50;2.40;;;;;;;25.75;39.69;98182.99;110102;1245;59700;-65
2023/09/06 08:13:53;;;;;;;3.90;2.60;;;;;;;25.71;38.85;98178.83;110152;1241;59711;-64
2023/09/06 08:16:22;;;;;;;;;;;;;;;26.08;39.50;98178.48;110191;1243;71383;-65
2023/09/06 08:18:51;;;;;;;4.30;2.80;;;;;;;26.60;38.74;98183.19;110153;1244;69814;-66
2023/09/06 08:21:20;;;;;;;4.10;3.30;;;;;;;27.14;39.05;98182.66;110118;1243;68896;-66
2023/09/06 08:23:49;;;;;;;3.70;3.20;;;;;;;27.35;37.01;98184.84;110136;1241;59941;-65
2023/09/06 08:26:19;;;;;;;3.60;2.80;;;;;;;27.45;36.36;98183.40;110170;1243;59634;-65
2023/09/06 08:28:49;;;;;;;4.90;2.80;;;;;;;27.56;36.07;98181.65;110138;1242;71965;-65
2023/09/06 08:31:18;;;;;;;3.70;2.70;;;;;;;27.59;35.68;98181.13;110155;1244;69050;-66
2023/09/06 08:33:49;;;;;;;3.60;2.50;;;;;;;28.18;35.46;98177.33;110136;1241;69177;-65
2023/09/06 08:36:18;;;;;;;4.00;2.70;;;;;;;28.56;35.39;98181.42;110148;1241;59747;-66
2023/09/06 08:38:47;;;;;;;3.30;2.30;;;;;;;28.69;34.59;98179.99;110173;1241;59694;-65
2023/09/06 08:41:17;;;;;;;3.20;2.20;;;;;;;29.10;35.10;98177.22;110176;1241;72307;-65
2023/09/06 08:43:47;;;;;;;3.50;2.20;;;;;;;29.58;33.80;98173.59;110141;1245;70260;-65
2023/09/06 08:46:21;;;;;;;3.80;2.40;;;;;;;29.86;31.77;98168.20;110144;1245;69852;-65
2023/09/06 08:48:52;;;;;;;2.60;2.00;;;;;;;29.92;30.27;98174.89;110138;1244;59731;-66
2023/09/06 08:51:22;;;;;;;3.90;2.40;;;;;;;29.89;29.30;98173.90;110167;1243;59757;-63
2023/09/06 08:53:52;;;;;;;2.80;2.40;;;;;;;30.07;30.99;98175.98;110160;1242;71986;-66
2023/09/06 08:56:21;;;;;;;3.30;2.20;;;;;;;30.32;30.16;98175.30;110139;1245;69247;-64
2023/09/06 08:58:50;;;;;;;2.90;2.30;;;;;;;30.53;30.44;98179.04;110116;1241;69860;-65
2023/09/06 09:01:21;;;;;;;3.30;2.30;;;;;;;29.77;28.35;98177.79;110164;1243;59674;-65
2023/09/06 09:03:51;;;;;;;3.80;2.10;;;;;;;29.73;29.36;98178.56;110180;1241;59721;-65
2023/09/06 09:06:20;;;;;;;3.50;2.10;;;;;;;29.93;30.18;98181.13;110179;1243;71163;-65
2023/09/06 09:08:49;;;;;;;2.60;2.00;;;;;;;30.67;30.54;98180.41;110188;1243;69789;-65
2023/09/06 09:11:20;;;;;;;3.00;2.30;;;;;;;31.10;28.94;98176.47;110147;1243;68363;-66
2023/09/06 09:13:49;;;;;;;2.40;2.00;;;;;;;30.63;28.23;98170.61;110065;1241;59814;-64
2023/09/06 09:16:18;;;;;;;3.30;2.60;;;;;;;30.84;28.83;98171.53;110121;1241;59725;-64
2023/09/06 09:18:49;;;;;;;3.20;2.20;;;;;;;30.76;27.83;98168.38;110115;1241;71997;-65
2023/09/06 09:21:18;;;;;;;4.10;2.40;;;;;;;30.06;27.75;98160.00;110179;1241;69131;-65
2023/09/06 09:23:55;;;;;;;3.40;2.70;;;;;;;30.86;27.36;98165.85;110157;1243;69742;-65
2023/09/06 09:26:25;;;;;;;3.30;2.20;;;;;;;30.45;28.22;98164.95;110129;1245;59709;-64
2023/09/06 09:28:54;;;;;;;2.80;2.20;;;;;;;30.62;27.81;98169.71;110146;1244;59654;-63
2023/09/06 09:31:27;;;;;;;2.90;2.10;;;;;;;30.54;27.73;98168.61;110121;1245;71973;-64
2023/09/06 09:33:56;;;;;;;3.30;2.60;;;;;;;30.98;27.34;98172.51;110140;1241;69255;-65
2023/09/06 09:36:28;;;;;;;3.10;2.30;;;;;;;30.57;26.71;98171.44;110091;1241;69242;-65
2023/09/06 09:38:57;;;;;;;3.80;2.70;;;;;;;30.04;27.66;98168.05;110154;1245;59760;-65
2023/09/06 09:41:31;;;;;;;2.70;2.00;;;;;;;31.01;27.68;98167.21;110140;1243;59657;-65
2023/09/06 09:44:15;;;;;;;2.90;2.10;;;;;;;31.77;28.02;98159.95;110119;1243;71950;-65
2023/09/06 09:46:46;;;;;;;2.70;1.90;;;;;;;32.58;26.59;98156.41;110135;1241;68403;-65
2023/09/06 09:49:17;;;;;;;2.50;2.00;;;;;;;32.85;26.68;98153.36;110103;1243;69988;-65
2023/09/06 09:51:50;;;;;;;4.00;2.30;;;;;;;33.08;26.14;98153.00;110165;1243;59732;-65
2023/09/06 09:54:23;;;;;;;3.90;2.10;;;;;;;32.35;25.29;98149.27;110173;1245;59686;-66
2023/09/06 09:57:03;;;;;;;3.00;1.90;;;;;;;32.63;25.23;98148.24;110144;1244;72555;-65
2023/09/06 09:59:35;;;;;;;3.30;2.60;;;;;;;33.24;25.37;98150.38;110137;1243;69887;-65
2023/09/06 10:02:05;;;;;;;3.00;1.90;;;;;;;32.60;24.94;98146.29;110162;1243;69899;-66
2023/09/06 10:04:42;;;;;;;2.20;1.80;;;;;;;32.82;25.64;98146.20;110160;1241;59747;-65
2023/09/06 10:07:14;;;;;;;2.70;1.90;;;;;;;32.87;24.84;98147.17;110179;1251;59697;-65
2023/09/06 10:09:43;;;;;;;2.80;2.00;;;;;;;32.81;25.15;98145.81;110120;1243;71139;-66
2023/09/06 10:12:12;;;;;;;4.30;2.50;;;;;;;33.01;24.67;98145.33;110150;1241;69634;-66
2023/09/06 10:14:42;;;;;;;2.80;2.20;;;;;;;33.33;25.20;98147.65;110112;1245;69446;-65
2023/09/06 10:17:11;;;;;;;3.10;2.00;;;;;;;33.12;24.66;98146.33;110177;1244;59704;-66
2023/09/06 10:19:41;;;;;;;3.00;2.20;;;;;;;33.25;24.62;98146.81;110146;1245;59669;-65
2023/09/06 10:22:22;;;;;;;4.20;2.60;;;;;;;33.48;24.93;98151.69;110133;1241;71361;-65
2023/09/06 10:24:52;;;;;;;2.80;2.10;;;;;;;33.33;24.23;98147.10;110156;1241;69819;-64
2023/09/06 10:27:32;;;;;;;3.10;2.10;;;;;;;32.85;24.10;98143.55;110159;1241;69266;-65
2023/09/06 10:30:06;;;;;;;2.80;2.00;;;;;;;32.48;24.43;98140.58;110121;1244;59648;-64
2023/09/06 10:32:43;;;;;;;3.40;2.40;;;;;;;32.28;25.37;98137.73;110152;1243;59604;-65
2023/09/06 10:35:25;;;;;;;3.90;2.20;;;;;;;32.96;23.95;98136.55;110100;1244;71785;-65
2023/09/06 10:38:18;;;;;;;3.20;2.10;;;;;;;32.78;25.33;98137.88;110111;1241;69862;-65
2023/09/06 10:40:48;;;;;;;2.00;1.50;;;;;;;33.41;24.08;98134.47;110082;1243;68572;-65
2023/09/06 10:43:18;;;;;;;2.40;1.80;;;;;;;33.57;23.58;98130.67;110098;1244;59684;-64
2023/09/06 10:45:58;;;;;;;2.40;1.70;;;;;;;34.17;22.77;98131.12;110113;1243;60049;-65
2023/09/06 10:48:27;;;;;;;2.00;1.50;;;;;;;34.68;22.72;98131.67;110131;1245;72116;-65
2023/09/06 10:51:08;;;;;;;2.10;1.50;;;;;;;34.85;20.90;98128.12;110098;1241;69760;-65
2023/09/06 10:53:38;;;;;;;2.10;1.60;;;;;;;34.23;20.76;98126.21;110131;1245;69153;-65
2023/09/06 10:56:07;;;;;;;2.60;1.70;;;;;;;34.99;21.88;98124.77;110128;1241;59742;-65
2023/09/06 10:58:37;;;;;;;2.30;1.60;;;;;;;35.29;22.01;98122.89;110136;1242;59686;-65
2023/09/06 11:01:25;;;;;;;2.60;1.70;;;;;;;35.32;22.40;98118.53;110112;1244;71957;-64
2023/09/06 11:03:54;;;;;;;2.60;1.50;;;;;;;35.54;21.52;98116.39;110172;1243;68434;-66
2023/09/06 11:06:26;;;;;;;2.10;1.70;;;;;;;36.01;21.98;98107.20;110139;1241;69897;-64
2023/09/06 11:09:07;;;;;;;2.50;1.60;;;;;;;36.15;21.37;98104.27;110135;1245;60119;-65
2023/09/06 11:11:37;;;;;;;2.80;1.80;;;;;;;35.96;20.93;98102.03;110173;1243;59647;-65
2023/09/06 11:14:06;;;;;;;2.10;1.70;;;;;;;35.59;20.20;98104.09;110113;1243;72422;-64
2023/09/06 11:16:36;;;;;;;2.70;2.00;;;;;;;35.01;20.24;98102.14;110163;1244;68778;-64
2023/09/06 11:19:05;;;;;;;2.40;1.90;;;;;;;34.46;21.39;98100.12;110162;1243;69731;-65
2023/09/06 11:21:36;;;;;;;3.30;2.20;;;;;;;33.98;22.18;98095.58;110087;1243;59754;-65
2023/09/06 11:24:05;;;;;;;2.70;1.70;;;;;;;33.64;21.32;98093.70;110136;1243;59719;-63
2023/09/06 11:26:35;;;;;;;3.20;2.10;;;;;;;32.43;22.72;98088.14;110179;1245;71359;-65
2023/09/06 11:29:04;;;;;;;3.30;1.80;;;;;;;31.10;23.82;98089.80;110155;1243;69574;-65
2023/09/06 11:31:34;;;;;;;2.70;1.90;;;;;;;30.79;24.89;98085.98;110140;1245;70215;-63
2023/09/06 11:34:05;;;;;;;3.50;1.90;;;;;;;31.37;24.59;98080.72;110168;1241;59661;-65
2023/09/06 11:36:36;;;;;;;4.10;2.30;;;;;;;32.01;23.86;98074.84;110167;1244;59760;-64
2023/09/06 11:39:18;;;;;;;3.60;1.90;;;;;;;32.61;23.13;98077.27;110131;1241;71827;-65
2023/09/06 11:41:48;;;;;;;2.20;1.80;;;;;;;33.05;22.92;98069.66;110172;1242;69025;-65
2023/09/06 11:44:19;;;;;;;2.50;1.60;;;;;;;33.40;22.11;98065.96;110151;1245;68494;-65
2023/09/06 11:46:48;;;;;;;2.30;1.80;;;;;;;34.12;22.13;98061.81;110153;1245;59681;-65